Time;durP1;ratioP1;P1;durP2;ratioP2;P2;SDS_P1;SDS_P2;PMS_P1;PMS_P2;Temp;Humidity;BMP_temperature;BMP_pressure;BME280_temperature;BME280_humidity;BME280_pressure;Samples;Min_cycle;Max_cycle;Signal;HPM_P1;HPM_P2
2023/02/28 00:02:07;;;;;;;5.68;2.00;;;1.30;72.70;;;;;;5053227;28;20056;-76
2023/02/28 00:04:34;;;;;;;5.60;2.15;;;1.20;72.80;;;;;;5057785;28;20117;-76
2023/02/28 00:07:01;;;;;;;4.85;2.03;;;1.20;72.80;;;;;;5056857;28;20049;-73
2023/02/28 00:09:32;;;;;;;3.50;2.15;;;1.20;73.00;;;;;;5056667;28;20045;-74
2023/02/28 00:11:59;;;;;;;3.63;1.80;;;1.10;73.00;;;;;;5057825;28;20068;-75
2023/02/28 00:14:33;;;;;;;4.68;2.42;;;1.10;73.40;;;;;;5055946;28;20094;-75
2023/02/28 00:17:07;;;;;;;3.65;1.95;;;1.10;73.50;;;;;;5057670;28;20053;-75
2023/02/28 00:19:35;;;;;;;3.92;2.10;;;1.00;73.50;;;;;;5056835;28;20068;-76
2023/02/28 00:22:02;;;;;;;6.50;2.05;;;1.00;73.60;;;;;;5055812;28;20525;-75
2023/02/28 00:24:29;;;;;;;3.92;2.17;;;1.00;73.50;;;;;;5052436;28;20080;-74
2023/02/28 00:26:56;;;;;;;5.63;2.13;;;1.00;73.60;;;;;;5051500;28;20155;-75
2023/02/28 00:29:23;;;;;;;5.72;2.38;;;1.00;73.60;;;;;;5055100;28;20088;-74
2023/02/28 00:31:50;;;;;;;4.03;2.20;;;1.00;73.70;;;;;;5044947;28;20090;-76
2023/02/28 00:34:18;;;;;;;3.50;2.10;;;1.00;73.60;;;;;;5048069;28;20106;-74
2023/02/28 00:36:46;;;;;;;4.70;1.98;;;0.90;73.70;;;;;;5050261;28;20044;-75
2023/02/28 00:39:13;;;;;;;4.50;2.13;;;1.00;73.50;;;;;;5052001;28;21355;-76
2023/02/28 00:41:43;;;;;;;4.32;2.15;;;1.00;73.60;;;;;;5056514;28;20048;-74
2023/02/28 00:44:10;;;;;;;4.83;2.03;;;0.90;73.70;;;;;;5054468;28;20139;-75
2023/02/28 00:46:37;;;;;;;3.35;1.85;;;0.90;73.80;;;;;;5051175;28;20049;-75
2023/02/28 00:49:04;;;;;;;4.82;2.22;;;1.00;73.70;;;;;;5054170;28;20053;-75
2023/02/28 00:51:37;;;;;;;5.43;1.92;;;0.90;73.80;;;;;;5054127;28;20041;-75
2023/02/28 00:54:04;;;;;;;3.58;2.08;;;0.90;73.80;;;;;;5052117;28;20056;-75
2023/02/28 00:56:31;;;;;;;5.80;2.70;;;1.00;73.80;;;;;;5052350;28;20102;-74
2023/02/28 00:58:58;;;;;;;4.05;2.00;;;0.90;73.80;;;;;;5054365;28;20054;-75
2023/02/28 01:01:25;;;;;;;5.53;2.50;;;0.90;73.90;;;;;;5055587;28;20050;-62
2023/02/28 01:03:52;;;;;;;4.50;2.00;;;0.80;74.10;;;;;;5054070;28;20151;-63
2023/02/28 01:06:21;;;;;;;4.80;2.05;;;0.80;74.30;;;;;;5043245;28;20130;-62
2023/02/28 01:08:49;;;;;;;4.90;2.28;;;0.80;74.20;;;;;;5056624;28;20053;-62
2023/02/28 01:11:18;;;;;;;4.13;2.03;;;0.70;74.30;;;;;;5055374;28;20041;-63
2023/02/28 01:13:47;;;;;;;5.18;2.00;;;0.70;74.40;;;;;;5047044;28;20605;-62
2023/02/28 01:16:14;;;;;;;4.50;2.50;;;0.70;74.40;;;;;;5053227;28;20049;-63
2023/02/28 01:18:41;;;;;;;4.03;2.30;;;0.70;74.50;;;;;;5052471;28;20053;-62
2023/02/28 01:21:14;;;;;;;6.20;2.40;;;0.60;74.70;;;;;;5050994;28;20060;-62
2023/02/28 01:23:42;;;;;;;3.47;2.13;;;0.60;74.90;;;;;;5038324;28;20053;-62
2023/02/28 01:26:13;;;;;;;4.50;2.17;;;0.50;75.10;;;;;;5054896;28;20069;-62
2023/02/28 01:28:40;;;;;;;4.53;2.30;;;0.50;75.00;;;;;;5050616;28;20490;-63
2023/02/28 01:31:08;;;;;;;4.03;2.13;;;0.50;75.00;;;;;;5046687;28;20107;-63
2023/02/28 01:33:37;;;;;;;3.55;2.05;;;0.50;75.10;;;;;;5038546;28;20510;-62
2023/02/28 01:36:05;;;;;;;4.68;2.35;;;0.50;75.20;;;;;;5056734;28;20051;-62
2023/02/28 01:38:32;;;;;;;5.05;2.28;;;0.50;75.10;;;;;;5038774;28;20052;-63
2023/02/28 01:40:59;;;;;;;5.03;2.10;;;0.50;75.10;;;;;;5049309;28;20056;-64
2023/02/28 01:43:31;;;;;;;5.22;2.28;;;0.50;75.00;;;;;;5049073;28;20056;-65
2023/02/28 01:46:00;;;;;;;4.65;2.08;;;0.50;75.10;;;;;;5050662;28;20060;-65
2023/02/28 01:48:36;;;;;;;3.90;2.05;;;0.50;75.10;;;;;;5052506;28;20045;-64
2023/02/28 01:51:07;;;;;;;5.68;2.75;;;0.40;75.20;;;;;;5050619;28;20053;-71
2023/02/28 01:53:35;;;;;;;;;;;0.40;75.10;;;;;;5057954;28;20045;-70
2023/02/28 01:56:07;;;;;;;5.40;1.98;;;0.30;75.30;;;;;;5054233;28;20027;-63
2023/02/28 01:58:37;;;;;;;4.45;2.15;;;0.40;75.20;;;;;;5054073;28;20136;-65
2023/02/28 02:01:04;;;;;;;4.25;2.10;;;0.30;75.20;;;;;;5039069;28;20044;-64
2023/02/28 02:03:32;;;;;;;3.95;2.10;;;0.30;75.30;;;;;;5056901;28;20048;-63
2023/02/28 02:05:59;;;;;;;4.70;2.00;;;0.30;75.30;;;;;;5055859;28;20057;-65
2023/02/28 02:08:29;;;;;;;3.72;1.70;;;0.40;74.80;;;;;;5055173;28;20063;-64
2023/02/28 02:10:58;;;;;;;5.00;2.20;;;0.40;74.70;;;;;;5055173;28;20058;-64
2023/02/28 02:13:52;;;;;;;3.72;1.80;;;0.30;74.90;;;;;;5055789;28;20492;-64
2023/02/28 02:16:32;;;;;;;3.40;1.98;;;0.20;75.20;;;;;;5047732;28;20110;-64
2023/02/28 02:19:11;;;;;;;7.40;2.58;;;0.20;75.40;;;;;;5056584;28;20514;-65
2023/02/28 02:22:07;;;;;;;4.40;2.00;;;0.20;75.20;;;;;;5069125;28;20123;-69
2023/02/28 02:25:03;;;;;;;3.85;2.08;;;0.20;75.30;;;;;;5054079;28;20047;-69
2023/02/28 02:28:00;;;;;;;4.35;1.80;;;0.20;75.30;;;;;;5056011;28;20127;-68
2023/02/28 02:30:51;;;;;;;3.20;1.90;;;0.10;75.30;;;;;;5054234;28;20060;-68
2023/02/28 02:33:58;;;;;;;3.60;2.00;;;0.10;75.40;;;;;;5056559;28;20068;-68
2023/02/28 02:36:31;;;;;;;3.05;1.80;;;0.10;75.40;;;;;;5054773;28;20080;-70
2023/02/28 02:39:05;;;;;;;4.05;2.20;;;0.10;75.40;;;;;;5054576;28;20048;-70
2023/02/28 02:41:39;;;;;;;3.47;1.73;;;0.10;75.60;;;;;;5055699;28;20079;-65
2023/02/28 02:44:13;;;;;;;4.35;1.90;;;0.10;75.50;;;;;;5055081;28;20086;-65
2023/02/28 02:46:43;;;;;;;4.15;1.95;;;0.10;75.50;;;;;;5052471;28;20068;-70
2023/02/28 02:49:16;;;;;;;5.72;1.88;;;0.00;75.50;;;;;;5054208;28;20053;-71
2023/02/28 02:51:46;;;;;;;4.30;1.80;;;0.10;75.40;;;;;;5056243;28;20052;-75
2023/02/28 02:54:18;;;;;;;3.83;2.08;;;0.00;75.40;;;;;;5053606;28;20045;-76
2023/02/28 02:56:47;;;;;;;4.05;2.05;;;0.00;75.70;;;;;;5056425;28;20041;-75
2023/02/28 02:59:21;;;;;;;3.97;2.10;;;0.00;75.60;;;;;;5052917;28;20049;-74
2023/02/28 03:01:51;;;;;;;3.35;1.73;;;0.00;75.50;;;;;;5056015;28;20055;-63
2023/02/28 03:04:20;;;;;;;3.42;1.80;;;0.00;75.40;;;;;;5060243;28;20052;-61
2023/02/28 03:06:54;;;;;;;3.80;1.73;;;0.00;75.50;;;;;;5057851;28;20059;-70
2023/02/28 03:09:23;;;;;;;2.75;1.63;;;0.00;75.40;;;;;;5060171;28;20045;-69
2023/02/28 03:11:53;;;;;;;3.45;1.80;;;0.00;75.40;;;;;;5044467;28;20113;-69
2023/02/28 03:14:28;;;;;;;3.70;1.50;;;0.00;75.40;;;;;;5057695;28;20485;-69
2023/02/28 03:17:13;;;;;;;3.83;1.77;;;0.00;75.50;;;;;;5073152;28;20044;-69
2023/02/28 03:19:53;;;;;;;5.20;2.03;;;0.00;75.20;;;;;;5057391;28;20517;-69
2023/02/28 03:22:40;;;;;;;6.95;2.45;;;0.00;75.20;;;;;;5059649;28;20059;-70
2023/02/28 03:25:11;;;;;;;6.43;2.80;;;0.00;75.20;;;;;;5057412;28;20052;-70
2023/02/28 03:27:42;;;;;;;4.93;2.22;;;0.00;75.50;;;;;;5058916;28;20051;-68
2023/02/28 03:30:15;;;;;;;6.90;2.63;;;0.00;75.60;;;;;;5057376;28;20049;-69
2023/02/28 03:32:49;;;;;;;5.55;2.83;;;0.00;75.70;;;;;;5058624;28;20067;-69
2023/02/28 03:35:22;;;;;;;6.32;2.45;;;-3276.70;75.90;;;;;;5059911;28;20057;-70
2023/02/28 03:37:53;;;;;;;5.15;2.30;;;-3276.70;76.10;;;;;;5058865;28;20121;-64
2023/02/28 03:40:24;;;;;;;6.38;2.70;;;0.00;76.10;;;;;;5042751;28;20181;-64
2023/02/28 03:42:56;;;;;;;5.78;3.05;;;0.00;76.00;;;;;;5056607;28;20553;-64
2023/02/28 03:45:26;;;;;;;6.00;2.50;;;0.00;76.00;;;;;;5057445;28;20044;-65
2023/02/28 03:48:01;;;;;;;5.73;2.53;;;0.00;75.80;;;;;;5054794;28;20040;-64
2023/02/28 03:50:35;;;;;;;7.13;2.47;;;0.00;75.60;;;;;;5058015;28;20044;-64
2023/02/28 03:53:09;;;;;;;3.65;2.10;;;0.00;75.70;;;;;;5057668;28;20056;-65
2023/02/28 03:55:40;;;;;;;3.78;1.98;;;0.00;75.50;;;;;;5058220;28;20094;-68
2023/02/28 03:58:16;;;;;;;4.10;2.10;;;0.10;75.40;;;;;;5046775;28;20045;-68
2023/02/28 04:00:48;;;;;;;4.53;2.10;;;0.10;75.40;;;;;;5056439;28;20064;-74
2023/02/28 04:03:15;;;;;;;4.72;1.92;;;0.00;75.40;;;;;;5057578;28;20055;-75
2023/02/28 04:05:50;;;;;;;4.68;2.00;;;0.00;75.50;;;;;;5056726;28;20059;-63
2023/02/28 04:08:19;;;;;;;4.10;1.90;;;0.00;75.40;;;;;;5057520;28;20063;-62
2023/02/28 04:10:51;;;;;;;5.55;1.85;;;0.00;75.20;;;;;;5058765;28;20045;-65
2023/02/28 04:13:18;;;;;;;3.85;1.70;;;0.00;75.20;;;;;;5057136;28;20052;-66
2023/02/28 04:15:45;;;;;;;4.82;1.90;;;0.00;75.40;;;;;;5055537;28;20045;-62
2023/02/28 04:18:12;;;;;;;5.25;1.90;;;0.00;75.60;;;;;;5057002;28;20049;-61
2023/02/28 04:20:39;;;;;;;4.63;1.80;;;0.00;75.50;;;;;;5057129;28;20060;-63
2023/02/28 04:23:06;;;;;;;3.33;1.65;;;0.00;75.60;;;;;;5055629;28;21034;-61
2023/02/28 04:25:34;;;;;;;3.92;1.65;;;0.00;75.40;;;;;;5056711;28;20039;-62
2023/02/28 04:28:01;;;;;;;3.45;1.73;;;0.00;75.20;;;;;;5057123;28;20056;-62
2023/02/28 04:30:29;;;;;;;4.22;1.85;;;0.00;75.30;;;;;;5057537;28;20086;-63
2023/02/28 04:32:56;;;;;;;3.08;1.73;;;0.00;75.20;;;;;;5058199;28;20518;-61
2023/02/28 04:35:23;;;;;;;4.50;1.85;;;0.00;75.20;;;;;;5054358;28;20045;-62
2023/02/28 04:37:50;;;;;;;2.92;1.50;;;0.00;75.10;;;;;;5055065;28;20405;-62
2023/02/28 04:40:17;;;;;;;4.55;1.88;;;0.00;75.00;;;;;;5057145;28;20079;-61
2023/02/28 04:42:45;;;;;;;3.85;1.90;;;0.00;75.00;;;;;;5055929;28;20048;-63
2023/02/28 04:45:12;;;;;;;4.43;2.00;;;0.00;75.20;;;;;;5057458;28;20044;-62
2023/02/28 04:47:39;;;;;;;4.47;2.00;;;0.10;75.10;;;;;;5057028;28;20060;-62
2023/02/28 04:50:06;;;;;;;4.70;2.25;;;0.10;75.00;;;;;;5057414;28;20043;-63
2023/02/28 04:52:33;;;;;;;3.33;2.05;;;0.10;74.80;;;;;;5056034;28;20045;-63
2023/02/28 04:55:00;;;;;;;2.88;1.80;;;0.20;74.50;;;;;;5057889;28;20049;-63
2023/02/28 04:57:28;;;;;;;4.95;2.20;;;0.20;74.50;;;;;;5051385;28;20135;-62
2023/02/28 04:59:56;;;;;;;3.08;1.90;;;0.20;74.30;;;;;;5057491;28;20049;-63
2023/02/28 05:02:23;;;;;;;3.65;1.90;;;0.10;74.30;;;;;;5035384;28;20050;-65
2023/02/28 05:04:50;;;;;;;4.20;1.63;;;0.10;74.30;;;;;;5050623;28;20056;-66
2023/02/28 05:07:17;;;;;;;6.18;2.05;;;0.10;74.30;;;;;;5056033;28;20052;-66
2023/02/28 05:09:44;;;;;;;3.45;1.67;;;0.10;74.30;;;;;;5052324;28;20119;-65
2023/02/28 05:12:11;;;;;;;3.55;1.55;;;0.00;74.30;;;;;;5053154;28;20102;-68
2023/02/28 05:14:38;;;;;;;4.75;2.10;;;0.00;74.50;;;;;;5058018;28;20056;-69
2023/02/28 05:17:06;;;;;;;4.85;1.98;;;0.00;74.60;;;;;;5050568;28;20681;-69
2023/02/28 05:19:33;;;;;;;5.57;2.50;;;0.00;74.60;;;;;;5056035;28;20504;-68
2023/02/28 05:22:00;;;;;;;5.03;2.10;;;0.00;74.50;;;;;;5054318;28;20049;-70
2023/02/28 05:24:27;;;;;;;4.65;1.77;;;0.00;74.40;;;;;;5055670;28;20044;-70
2023/02/28 05:26:55;;;;;;;3.50;1.80;;;-3276.70;74.40;;;;;;5055727;28;20044;-69
2023/02/28 05:29:22;;;;;;;3.42;1.63;;;-3276.70;74.50;;;;;;5055686;28;20582;-70
2023/02/28 05:31:49;;;;;;;4.65;1.90;;;-3276.70;74.70;;;;;;5053715;28;21222;-63
2023/02/28 05:34:17;;;;;;;4.22;1.90;;;-3276.70;74.60;;;;;;5054852;28;20727;-62
2023/02/28 05:36:45;;;;;;;3.75;1.75;;;-3276.70;74.60;;;;;;5054506;28;20091;-62
2023/02/28 05:39:13;;;;;;;3.80;1.60;;;-3276.60;74.70;;;;;;5054332;28;20064;-63
2023/02/28 05:41:43;;;;;;;3.47;1.70;;;-3276.60;74.90;;;;;;5041388;28;20423;-63
2023/02/28 05:44:10;;;;;;;4.18;2.03;;;-3276.60;74.80;;;;;;5054372;28;20143;-62
2023/02/28 05:46:38;;;;;;;4.53;1.70;;;-3276.70;74.70;;;;;;5054736;28;20040;-75
2023/02/28 05:49:05;;;;;;;3.28;1.70;;;-3276.60;74.40;;;;;;5055861;28;20098;-75
2023/02/28 05:51:34;;;;;;;3.50;1.75;;;-3276.70;74.40;;;;;;5056957;28;20060;-74
2023/02/28 05:54:01;;;;;;;4.00;1.70;;;-3276.60;74.40;;;;;;5054621;28;20044;-76
2023/02/28 05:56:29;;;;;;;4.93;2.10;;;-3276.60;74.50;;;;;;5055995;28;20480;-76
2023/02/28 05:58:56;;;;;;;4.28;1.85;;;-3276.50;74.60;;;;;;5056218;28;20040;-76
2023/02/28 06:01:32;;;;;;;4.20;2.00;;;-3276.50;74.70;;;;;;5057080;28;20045;-61
2023/02/28 06:04:03;;;;;;;4.15;1.77;;;-3276.50;74.60;;;;;;5055518;28;20052;-62
2023/02/28 06:06:30;;;;;;;4.82;1.77;;;-3276.50;74.60;;;;;;5056547;28;20048;-63
2023/02/28 06:08:59;;;;;;;5.13;1.67;;;-3276.50;74.60;;;;;;5055904;28;20157;-64
2023/02/28 06:11:27;;;;;;;4.97;2.10;;;-3276.60;74.50;;;;;;5056878;28;20080;-63
2023/02/28 06:13:55;;;;;;;4.50;1.77;;;-3276.50;74.40;;;;;;5045428;28;20087;-65
2023/02/28 06:16:22;;;;;;;6.15;2.17;;;-3276.60;74.50;;;;;;5053670;28;20763;-64
2023/02/28 06:18:49;;;;;;;6.63;2.47;;;-3276.60;74.30;;;;;;5054544;28;20128;-64
2023/02/28 06:21:16;;;;;;;5.57;2.20;;;-3276.60;74.30;;;;;;5054061;28;20053;-70
2023/02/28 06:23:43;;;;;;;4.50;2.13;;;-3276.60;74.20;;;;;;5056407;28;20045;-68
2023/02/28 06:26:12;;;;;;;5.22;2.28;;;-3276.60;74.30;;;;;;5056123;28;20056;-70
2023/02/28 06:28:39;;;;;;;4.57;2.65;;;-3276.70;74.00;;;;;;5056652;28;20043;-69
2023/02/28 06:31:10;;;;;;;7.68;2.55;;;-3276.60;74.10;;;;;;5056947;28;20098;-70
2023/02/28 06:33:39;;;;;;;5.82;2.50;;;-3276.60;74.20;;;;;;5060150;28;20505;-70
2023/02/28 06:36:07;;;;;;;5.72;2.58;;;-3276.60;74.10;;;;;;5058174;28;20048;-70
2023/02/28 06:38:34;;;;;;;5.93;2.58;;;-3276.60;74.20;;;;;;5057822;28;20079;-69
2023/02/28 06:41:01;;;;;;;6.10;2.72;;;-3276.60;74.10;;;;;;5057591;28;20057;-75
2023/02/28 06:43:32;;;;;;;7.00;2.25;;;-3276.60;74.20;;;;;;5060134;28;20048;-76
2023/02/28 06:46:01;;;;;;;5.00;2.72;;;-3276.60;74.20;;;;;;5053618;28;20053;-76
2023/02/28 06:48:29;;;;;;;6.05;2.38;;;-3276.60;74.00;;;;;;5052473;28;20048;-76
2023/02/28 06:51:03;;;;;;;6.18;2.50;;;-3276.60;74.20;;;;;;5054033;28;20056;-69
2023/02/28 06:53:30;;;;;;;5.68;2.55;;;-3276.60;74.20;;;;;;5049392;28;20055;-68
2023/02/28 06:55:57;;;;;;;6.18;2.38;;;-3276.60;74.10;;;;;;5052776;28;20053;-75
2023/02/28 06:58:24;;;;;;;9.68;3.15;;;-3276.70;74.20;;;;;;5052537;28;20056;-76
2023/02/28 07:00:53;;;;;;;6.47;2.72;;;-3276.70;73.90;;;;;;5055519;28;20060;-62
2023/02/28 07:03:20;;;;;;;6.72;2.50;;;-3276.70;74.00;;;;;;5054554;28;20049;-61
2023/02/28 07:05:47;;;;;;;7.05;3.33;;;-3276.70;74.10;;;;;;5050874;28;20044;-63
2023/02/28 07:08:14;;;;;;;6.32;2.83;;;-3276.60;74.20;;;;;;5050818;28;20064;-63
2023/02/28 07:10:42;;;;;;;4.72;2.22;;;-3276.70;74.30;;;;;;5050443;28;20044;-64
2023/02/28 07:13:10;;;;;;;7.93;2.90;;;-3276.70;74.10;;;;;;5052736;28;20068;-63
2023/02/28 07:15:37;;;;;;;6.57;2.80;;;0.00;74.00;;;;;;5050369;28;21136;-64
2023/02/28 07:18:06;;;;;;;6.05;2.50;;;0.00;73.90;;;;;;5053438;28;20048;-62
2023/02/28 07:20:33;;;;;;;6.25;2.72;;;0.00;73.80;;;;;;5058611;28;20507;-62
2023/02/28 07:23:00;;;;;;;5.22;2.50;;;0.00;73.70;;;;;;5052680;28;20464;-62
2023/02/28 07:25:29;;;;;;;5.55;2.45;;;0.00;73.60;;;;;;5054242;28;20049;-62
2023/02/28 07:27:58;;;;;;;4.93;2.53;;;0.00;73.40;;;;;;5052709;28;20121;-63
2023/02/28 07:30:25;;;;;;;5.13;2.55;;;0.00;73.40;;;;;;5043321;28;20061;-62
2023/02/28 07:32:54;;;;;;;6.15;3.42;;;0.00;73.30;;;;;;5053027;28;20495;-68
2023/02/28 07:35:22;;;;;;;5.80;2.85;;;0.00;73.10;;;;;;5054880;28;20041;-68
2023/02/28 07:37:50;;;;;;;4.80;2.60;;;0.00;73.10;;;;;;5052779;28;20044;-61
2023/02/28 07:40:17;;;;;;;6.07;2.97;;;0.10;73.00;;;;;;5045052;28;20067;-62
2023/02/28 07:42:44;;;;;;;4.85;2.40;;;0.10;72.80;;;;;;5051160;28;20078;-62
2023/02/28 07:45:12;;;;;;;4.88;2.65;;;0.10;72.60;;;;;;5050905;28;20071;-62
2023/02/28 07:47:43;;;;;;;5.38;2.85;;;0.10;72.70;;;;;;5046073;28;20103;-64
2023/02/28 07:50:13;;;;;;;5.97;2.97;;;0.10;72.50;;;;;;5052418;28;20060;-64
2023/02/28 07:52:41;;;;;;;5.63;2.65;;;0.20;72.50;;;;;;5054624;28;20053;-70
2023/02/28 07:55:10;;;;;;;4.63;2.70;;;0.20;72.40;;;;;;5051202;28;20048;-68
2023/02/28 07:57:37;;;;;;;6.72;3.17;;;0.20;72.30;;;;;;5044686;28;20076;-67
2023/02/28 08:00:05;;;;;;;6.53;3.20;;;0.20;72.20;;;;;;5054983;28;20148;-67
2023/02/28 08:02:38;;;;;;;6.93;3.35;;;0.20;72.20;;;;;;5056777;28;20052;-68
2023/02/28 08:05:06;;;;;;;7.00;2.80;;;0.20;72.00;;;;;;5052971;28;20049;-68
2023/02/28 08:07:33;;;;;;;6.20;3.10;;;0.30;71.90;;;;;;5053957;28;20052;-65
2023/02/28 08:10:01;;;;;;;6.32;2.78;;;0.30;71.80;;;;;;5056640;28;20060;-65
2023/02/28 08:12:31;;;;;;;5.43;3.30;;;0.40;71.70;;;;;;5054144;28;20045;-62
2023/02/28 08:14:59;;;;;;;4.85;2.67;;;0.40;71.50;;;;;;5054520;28;20096;-62
2023/02/28 08:17:25;;;;;;;6.05;3.22;;;0.40;71.20;;;;;;5052881;28;20072;-63
2023/02/28 08:19:52;;;;;;;5.88;2.70;;;0.40;71.00;;;;;;5055208;28;20048;-62
2023/02/28 08:22:19;;;;;;;7.63;3.53;;;0.50;70.90;;;;;;5054902;28;20484;-62
2023/02/28 08:24:46;;;;;;;4.82;3.00;;;0.50;70.60;;;;;;5054376;28;20057;-62
2023/02/28 08:27:15;;;;;;;6.55;3.47;;;0.60;70.10;;;;;;5053730;28;20068;-64
2023/02/28 08:29:41;;;;;;;7.30;2.85;;;0.60;70.20;;;;;;5052733;28;20128;-63
2023/02/28 08:32:08;;;;;;;5.65;3.08;;;0.70;69.80;;;;;;5053302;28;20052;-67
2023/02/28 08:34:35;;;;;;;5.32;2.90;;;0.70;69.70;;;;;;5055411;28;20055;-70
2023/02/28 08:37:02;;;;;;;6.03;3.60;;;0.80;69.70;;;;;;5055357;28;20079;-62
2023/02/28 08:39:29;;;;;;;6.72;3.38;;;0.80;69.40;;;;;;5053123;28;20053;-63
2023/02/28 08:41:56;;;;;;;6.20;3.05;;;0.90;68.90;;;;;;5055974;28;20052;-64
2023/02/28 08:44:24;;;;;;;6.20;3.25;;;1.00;68.30;;;;;;5055832;28;20060;-64
2023/02/28 08:46:51;;;;;;;6.72;3.30;;;1.10;68.10;;;;;;5052789;28;20056;-74
2023/02/28 08:49:18;;;;;;;6.50;3.38;;;1.10;67.90;;;;;;5053711;28;20059;-73
2023/02/28 08:51:45;;;;;;;9.02;3.72;;;1.20;68.00;;;;;;5054680;28;20056;-63
2023/02/28 08:54:14;;;;;;;7.45;3.30;;;1.30;67.50;;;;;;5055470;28;20143;-63
2023/02/28 08:56:41;;;;;;;7.97;3.55;;;1.40;67.00;;;;;;5054435;28;20102;-63
2023/02/28 08:59:10;;;;;;;7.75;3.70;;;1.50;66.80;;;;;;5056375;28;20041;-61
2023/02/28 09:01:38;;;;;;;8.05;3.50;;;1.60;66.60;;;;;;5056839;28;20418;-63
2023/02/28 09:04:08;;;;;;;8.02;3.55;;;1.70;65.80;;;;;;5055099;28;20518;-62
2023/02/28 09:06:35;;;;;;;6.07;3.35;;;1.70;64.90;;;;;;5054714;28;20064;-61
2023/02/28 09:09:04;;;;;;;7.97;4.13;;;1.80;64.70;;;;;;5052890;28;20052;-61
2023/02/28 09:11:31;;;;;;;7.20;3.75;;;1.90;64.00;;;;;;5053363;28;20184;-61
2023/02/28 09:13:58;;;;;;;6.97;3.60;;;2.00;63.30;;;;;;5065654;28;20055;-62
2023/02/28 09:16:28;;;;;;;8.00;3.25;;;2.10;63.30;;;;;;5054419;28;20072;-61
2023/02/28 09:18:57;;;;;;;5.43;2.80;;;2.20;63.40;;;;;;5055261;28;20044;-61
2023/02/28 09:21:24;;;;;;;4.50;2.42;;;2.20;62.20;;;;;;5057972;28;20045;-68
2023/02/28 09:23:52;;;;;;;6.25;3.15;;;2.30;62.30;;;;;;5056967;28;20045;-65
2023/02/28 09:26:20;;;;;;;5.88;2.90;;;2.30;61.90;;;;;;5055603;28;20060;-67
2023/02/28 09:28:47;;;;;;;6.05;2.72;;;2.40;61.00;;;;;;5056658;28;20044;-66
2023/02/28 09:31:16;;;;;;;6.07;2.80;;;2.50;59.30;;;;;;5055290;28;20052;-68
2023/02/28 09:33:43;;;;;;;5.25;2.83;;;2.50;59.10;;;;;;5048162;28;20056;-65
2023/02/28 09:36:11;;;;;;;5.30;2.72;;;2.40;58.80;;;;;;5056281;28;20055;-66
2023/02/28 09:38:38;;;;;;;5.88;2.95;;;2.50;59.00;;;;;;5056791;28;20507;-67
2023/02/28 09:41:14;;;;;;;5.03;2.63;;;2.70;58.30;;;;;;5055667;28;20055;-71
2023/02/28 09:43:46;;;;;;;5.40;3.03;;;2.90;57.50;;;;;;5054594;28;20063;-74
2023/02/28 09:46:26;;;;;;;5.85;2.97;;;3.00;57.30;;;;;;5056494;28;20068;-74
2023/02/28 09:48:55;;;;;;;4.95;2.33;;;3.10;57.10;;;;;;5038953;28;20049;-75
2023/02/28 09:51:40;;;;;;;6.28;3.08;;;3.30;57.10;;;;;;5057106;28;20143;-74
2023/02/28 09:54:18;;;;;;;5.28;2.72;;;3.40;57.10;;;;;;5055264;28;20504;-74
2023/02/28 09:56:51;;;;;;;5.75;2.90;;;3.60;56.90;;;;;;5055929;28;20045;-74
2023/02/28 09:59:33;;;;;;;5.53;2.90;;;3.80;56.40;;;;;;5055896;28;20053;-74
2023/02/28 10:02:07;;;;;;;6.30;2.70;;;3.80;55.80;;;;;;5055341;28;20060;-73
2023/02/28 10:04:44;;;;;;;7.32;2.63;;;4.00;54.40;;;;;;5056942;28;20037;-74
2023/02/28 10:07:23;;;;;;;5.20;2.53;;;4.10;54.40;;;;;;5058595;28;20060;-74
2023/02/28 10:09:55;;;;;;;5.45;2.95;;;4.20;54.30;;;;;;5050277;28;20049;-74
2023/02/28 10:12:22;;;;;;;5.07;2.92;;;4.20;53.40;;;;;;5059268;28;20044;-74
2023/02/28 10:14:53;;;;;;;5.38;2.97;;;4.30;53.10;;;;;;5058336;28;20075;-72
2023/02/28 10:17:23;;;;;;;6.97;3.05;;;4.50;52.50;;;;;;5057048;28;20063;-73
2023/02/28 10:20:00;;;;;;;5.68;2.90;;;4.60;53.80;;;;;;5054756;28;20056;-73
2023/02/28 10:22:35;;;;;;;5.53;2.63;;;4.70;53.20;;;;;;5060127;28;20033;-74
2023/02/28 10:25:02;;;;;;;4.05;2.60;;;5.00;53.20;;;;;;5058989;28;20051;-73
2023/02/28 10:27:32;;;;;;;6.28;3.22;;;5.00;53.00;;;;;;5058472;28;20392;-74
2023/02/28 10:30:01;;;;;;;5.60;3.60;;;5.20;52.70;;;;;;5058987;28;20037;-75
2023/02/28 10:32:31;;;;;;;7.97;3.70;;;5.20;52.70;;;;;;5060000;28;20044;-73
2023/02/28 10:35:01;;;;;;;4.97;2.90;;;5.10;52.90;;;;;;5059692;28;20127;-74
2023/02/28 10:37:31;;;;;;;5.30;2.95;;;5.00;51.70;;;;;;5056719;28;20084;-73
2023/02/28 10:39:58;;;;;;;5.78;3.03;;;4.90;51.60;;;;;;5058308;28;20048;-73
2023/02/28 10:42:26;;;;;;;5.78;3.17;;;4.80;51.30;;;;;;5059694;28;20125;-73
2023/02/28 10:45:10;;;;;;;6.00;3.03;;;4.80;51.40;;;;;;5060122;28;20044;-74
2023/02/28 10:47:49;;;;;;;5.10;2.67;;;4.70;51.80;;;;;;5052310;28;20403;-74
2023/02/28 10:50:29;;;;;;;5.53;3.05;;;4.60;52.00;;;;;;5055786;28;20064;-66
2023/02/28 10:53:09;;;;;;;6.10;2.97;;;4.50;51.80;;;;;;5057565;28;20075;-65
2023/02/28 10:55:37;;;;;;;6.38;3.10;;;4.40;51.60;;;;;;5057266;28;20071;-65
2023/02/28 10:58:04;;;;;;;5.30;2.80;;;4.40;51.80;;;;;;5058513;28;20526;-66
2023/02/28 11:00:34;;;;;;;6.97;3.40;;;4.30;52.20;;;;;;5058094;28;20127;-67
2023/02/28 11:03:01;;;;;;;6.05;3.17;;;4.30;51.90;;;;;;5052889;28;20487;-67
2023/02/28 11:05:30;;;;;;;6.65;3.45;;;4.30;52.60;;;;;;5054176;28;20426;-65
2023/02/28 11:08:07;;;;;;;6.93;3.65;;;4.20;52.60;;;;;;5058548;28;20080;-65
2023/02/28 11:10:34;;;;;;;5.40;2.92;;;4.20;52.00;;;;;;5057383;28;20043;-66
2023/02/28 11:13:05;;;;;;;5.40;2.90;;;4.30;52.40;;;;;;5055015;28;20135;-66
2023/02/28 11:15:34;;;;;;;5.22;3.03;;;4.40;52.00;;;;;;5059600;28;20071;-65
2023/02/28 11:18:09;;;;;;;6.30;3.20;;;4.50;52.70;;;;;;5057365;28;20053;-67
2023/02/28 11:20:36;;;;;;;6.80;3.13;;;4.60;52.00;;;;;;5059047;28;20128;-65
2023/02/28 11:23:15;;;;;;;7.03;3.45;;;4.70;52.20;;;;;;5056411;28;20107;-66
2023/02/28 11:25:50;;;;;;;6.60;2.95;;;4.80;51.90;;;;;;5058002;28;20090;-66
2023/02/28 11:28:30;;;;;;;6.28;3.17;;;5.00;51.60;;;;;;5057140;28;20049;-66
2023/02/28 11:31:04;;;;;;;5.70;2.95;;;5.10;51.40;;;;;;5055291;28;20488;-65
2023/02/28 11:33:31;;;;;;;5.57;2.80;;;5.20;51.20;;;;;;5055711;28;20198;-65
2023/02/28 11:36:01;;;;;;;5.38;3.03;;;5.30;51.00;;;;;;5055062;28;21502;-65
2023/02/28 11:38:34;;;;;;;6.65;3.13;;;5.40;51.00;;;;;;5056418;28;20518;-66
2023/02/28 11:41:13;;;;;;;6.15;2.90;;;5.40;51.40;;;;;;5056994;28;20143;-66
2023/02/28 11:43:55;;;;;;;5.65;2.83;;;5.30;51.10;;;;;;5057489;28;20048;-68
2023/02/28 11:46:33;;;;;;;6.13;3.15;;;5.30;50.60;;;;;;5057770;28;20063;-66
2023/02/28 11:49:08;;;;;;;5.15;2.88;;;5.20;51.20;;;;;;5058215;28;20135;-65
2023/02/28 11:51:40;;;;;;;6.38;3.15;;;5.10;50.80;;;;;;5056420;28;20047;-62
2023/02/28 11:54:28;;;;;;;6.13;2.95;;;5.10;51.40;;;;;;5057345;28;20143;-61
2023/02/28 11:57:00;;;;;;;6.22;3.63;;;5.10;50.70;;;;;;5055030;28;20037;-62
2023/02/28 11:59:49;;;;;;;6.07;2.88;;;5.20;51.00;;;;;;5057717;28;20377;-62
2023/02/28 12:02:27;;;;;;;5.97;3.38;;;5.30;50.90;;;;;;5055018;28;20504;-74
2023/02/28 12:05:05;;;;;;;5.85;3.50;;;5.30;50.90;;;;;;5058137;28;20068;-73
2023/02/28 12:07:44;;;;;;;7.40;3.05;;;5.30;50.80;;;;;;5055682;28;20063;-74
2023/02/28 12:10:21;;;;;;;5.53;3.10;;;5.20;50.10;;;;;;5057153;28;20053;-70
2023/02/28 12:13:03;;;;;;;5.72;2.78;;;5.20;50.90;;;;;;5055509;28;20048;-73
2023/02/28 12:16:03;;;;;;;7.97;3.80;;;5.20;50.70;;;;;;5056452;28;20044;-73
2023/02/28 12:18:51;;;;;;;6.03;2.80;;;5.20;50.30;;;;;;5047382;28;20054;-73
2023/02/28 12:21:29;;;;;;;6.10;3.30;;;5.20;50.50;;;;;;5056928;28;20478;-73
2023/02/28 12:24:10;;;;;;;5.95;3.20;;;5.20;50.80;;;;;;5057064;28;20045;-73
2023/02/28 12:26:41;;;;;;;5.78;3.17;;;5.10;50.50;;;;;;5055474;28;20176;-73
2023/02/28 12:29:15;;;;;;;5.57;3.17;;;5.20;51.20;;;;;;5057704;28;20065;-74
2023/02/28 12:31:47;;;;;;;8.25;3.38;;;5.10;50.80;;;;;;5057718;28;20049;-62
2023/02/28 12:34:20;;;;;;;7.22;3.30;;;5.20;51.30;;;;;;5056439;28;20053;-63
2023/02/28 12:36:49;;;;;;;6.72;3.13;;;5.10;50.80;;;;;;5056244;28;20049;-62
2023/02/28 12:39:24;;;;;;;4.90;2.53;;;5.10;51.00;;;;;;5055749;28;20037;-62
2023/02/28 12:41:55;;;;;;;5.85;3.00;;;5.20;51.10;;;;;;5060163;28;20048;-63
2023/02/28 12:44:29;;;;;;;6.03;2.90;;;5.20;51.50;;;;;;5062636;28;20049;-61
2023/02/28 12:47:01;;;;;;;6.63;3.25;;;5.20;51.70;;;;;;5055215;28;20045;-60
2023/02/28 12:49:39;;;;;;;7.43;3.10;;;5.20;51.40;;;;;;5056109;28;20396;-60
2023/02/28 12:52:10;;;;;;;6.47;3.17;;;5.20;51.40;;;;;;5053231;28;20056;-70
2023/02/28 12:54:46;;;;;;;5.40;2.88;;;5.10;51.80;;;;;;5055282;28;20685;-70
2023/02/28 12:57:19;;;;;;;5.60;2.90;;;5.10;52.10;;;;;;5055717;28;20052;-70
2023/02/28 12:59:51;;;;;;;6.78;3.50;;;5.10;52.00;;;;;;5055260;28;20143;-70
2023/02/28 13:02:34;;;;;;;7.97;3.97;;;5.20;52.50;;;;;;5054633;28;20055;-67
2023/02/28 13:05:20;;;;;;;8.50;4.75;;;5.20;52.00;;;;;;5052715;28;20056;-68
2023/02/28 13:08:37;;;;;;;7.82;4.22;;;5.10;52.30;;;;;;5055264;28;20043;-68
2023/02/28 13:11:04;;;;;;;8.65;4.57;;;5.00;51.60;;;;;;5052457;28;20049;-66